Time;durP1;ratioP1;P1;durP2;ratioP2;P2;SDS_P1;SDS_P2;PMS_P1;PMS_P2;Temp;Humidity;BMP_temperature;BMP_pressure;BME280_temperature;BME280_humidity;BME280_pressure;Samples;Min_cycle;Max_cycle;Signal;HPM_P1;HPM_P2
2021/04/05 00:01:47;;;;;;;29.90;12.50;;;7.60;91.80;;;;;;4995665;28;20049;-90
2021/04/05 00:04:13;;;;;;;30.83;11.15;;;7.70;91.80;;;;;;4990875;28;20458;-90
2021/04/05 00:06:38;;;;;;;27.42;11.52;;;7.70;91.70;;;;;;4974702;28;20038;-91
2021/04/05 00:09:06;;;;;;;27.65;9.88;;;7.80;91.70;;;;;;4982312;28;20044;-90
2021/04/05 00:11:32;;;;;;;30.23;12.38;;;7.80;91.80;;;;;;4992380;28;20117;-88
2021/04/05 00:13:58;;;;;;;38.97;13.05;;;7.90;91.70;;;;;;4976012;28;20027;-91
2021/04/05 00:16:24;;;;;;;28.55;9.63;;;7.90;91.60;;;;;;4985326;28;20038;-90
2021/04/05 00:18:51;;;;;;;29.08;10.80;;;7.90;91.60;;;;;;4980407;28;20030;-90
2021/04/05 00:21:22;;;;;;;26.48;12.05;;;8.10;91.30;;;;;;4992213;28;20053;-91
2021/04/05 00:23:52;;;;;;;26.73;11.15;;;8.00;91.30;;;;;;4984210;28;20038;-91
2021/04/05 00:26:19;;;;;;;30.23;11.68;;;8.00;91.30;;;;;;4970827;28;20483;-91
2021/04/05 00:28:48;;;;;;;29.98;11.25;;;8.00;91.30;;;;;;4991155;28;20034;-90
2021/04/05 00:31:14;;;;;;;25.05;12.50;;;8.10;90.90;;;;;;4966780;28;20501;-90
2021/04/05 00:33:40;;;;;;;28.00;9.88;;;8.10;90.80;;;;;;4984690;28;20031;-90
2021/04/05 00:36:06;;;;;;;28.20;12.07;;;8.10;90.70;;;;;;4975807;28;20137;-90
2021/04/05 00:38:32;;;;;;;30.48;12.50;;;8.20;90.40;;;;;;4980109;28;20038;-91
2021/04/05 00:41:10;;;;;;;28.83;13.30;;;8.30;90.00;;;;;;4963387;28;20204;-90
2021/04/05 00:43:37;;;;;;;31.58;11.48;;;8.30;89.80;;;;;;4980014;28;20034;-90
2021/04/05 00:46:04;;;;;;;22.92;10.00;;;8.40;89.20;;;;;;4981971;28;20478;-90
2021/04/05 00:48:31;;;;;;;31.83;13.13;;;8.40;89.10;;;;;;4977331;28;20030;-91
2021/04/05 00:50:59;;;;;;;29.38;13.73;;;8.20;89.60;;;;;;4962029;28;20046;-90
2021/04/05 00:53:36;;;;;;;26.40;11.93;;;8.30;89.70;;;;;;4988466;28;20036;-90
2021/04/05 00:56:03;;;;;;;27.70;13.27;;;8.30;89.30;;;;;;4957341;28;20058;-91
2021/04/05 00:58:30;;;;;;;19.60;10.23;;;8.20;90.00;;;;;;4989748;28;20046;-91
2021/04/05 01:01:01;;;;;;;31.73;12.90;;;8.20;90.00;;;;;;4989944;28;20123;-91
2021/04/05 01:03:29;;;;;;;31.17;12.77;;;8.20;90.00;;;;;;4992020;28;20547;-91
2021/04/05 01:06:02;;;;;;;31.65;14.05;;;8.20;89.70;;;;;;4972172;28;20042;-91
2021/04/05 01:08:29;;;;;;;28.25;13.45;;;8.20;90.00;;;;;;4991883;28;20034;-90
2021/04/05 01:10:55;;;;;;;25.65;10.48;;;8.10;90.20;;;;;;4974489;28;20073;-91
2021/04/05 01:13:21;;;;;;;29.85;12.05;;;8.20;90.00;;;;;;4992126;28;20550;-91
2021/04/05 01:15:47;;;;;;;27.38;11.98;;;8.20;90.20;;;;;;4991459;28;20498;-91
2021/04/05 01:18:14;;;;;;;32.28;13.55;;;8.20;90.10;;;;;;4975087;28;20053;-90
2021/04/05 01:20:41;;;;;;;27.08;10.95;;;8.20;90.00;;;;;;4985507;28;20117;-89
2021/04/05 01:23:07;;;;;;;22.42;10.57;;;8.10;89.80;;;;;;4991671;28;20042;-93
2021/04/05 01:25:33;;;;;;;26.67;11.50;;;8.20;89.40;;;;;;4991569;28;20042;-90
2021/04/05 01:27:59;;;;;;;24.42;11.10;;;8.10;89.60;;;;;;4974201;28;20689;-91
2021/04/05 01:30:33;;;;;;;30.48;10.80;;;8.00;89.10;;;;;;4992211;28;20031;-90
2021/04/05 01:33:07;;;;;;;27.75;10.82;;;8.20;88.40;;;;;;4991097;28;20114;-90
2021/04/05 01:35:37;;;;;;;28.38;10.20;;;8.00;88.90;;;;;;4992672;28;20038;-92
2021/04/05 01:38:04;;;;;;;26.05;10.88;;;8.10;87.70;;;;;;4960702;28;20042;-90
2021/04/05 01:40:33;;;;;;;30.13;10.07;;;8.00;88.60;;;;;;4995528;28;20030;-91
2021/04/05 01:42:59;;;;;;;18.85;8.40;;;8.10;88.10;;;;;;4992676;28;20178;-89
2021/04/05 01:45:25;;;;;;;26.13;10.43;;;8.20;87.80;;;;;;4995381;28;20113;-92
2021/04/05 01:47:51;;;;;;;25.80;10.85;;;8.20;87.80;;;;;;4979927;28;20544;-91
2021/04/05 01:50:19;;;;;;;27.88;9.75;;;8.20;87.70;;;;;;4994764;28;20034;-92
2021/04/05 01:52:45;;;;;;;30.13;10.43;;;8.10;88.00;;;;;;4977025;28;20046;-90
2021/04/05 01:55:11;;;;;;;25.60;9.20;;;8.10;88.00;;;;;;4972718;28;20506;-91
2021/04/05 01:57:38;;;;;;;23.23;8.70;;;8.00;88.50;;;;;;4994899;28;20045;-90
2021/04/05 02:00:18;;;;;;;21.33;8.68;;;8.00;88.70;;;;;;4977558;28;20163;-92
2021/04/05 02:02:45;;;;;;;21.52;7.78;;;8.10;88.30;;;;;;4961781;28;20157;-91
2021/04/05 02:05:11;;;;;;;21.13;7.85;;;8.20;87.30;;;;;;4975534;28;20046;-92
2021/04/05 02:07:39;;;;;;;22.45;8.48;;;8.10;87.70;;;;;;4975891;28;20369;-91
2021/04/05 02:10:08;;;;;;;17.88;7.30;;;8.10;87.50;;;;;;4974949;28;20035;-91
2021/04/05 02:12:35;;;;;;;22.65;6.90;;;8.10;87.30;;;;;;4974259;28;20039;-90
2021/04/05 02:15:03;;;;;;;23.90;6.82;;;8.20;86.60;;;;;;4962557;28;20061;-91
2021/04/05 02:17:29;;;;;;;21.85;7.03;;;8.10;87.00;;;;;;4958209;28;20403;-91
2021/04/05 02:19:55;;;;;;;22.45;7.70;;;8.10;86.50;;;;;;4974921;28;20034;-92
2021/04/05 02:22:22;;;;;;;22.83;8.77;;;8.10;87.20;;;;;;4976716;28;20051;-92
2021/04/05 02:24:48;;;;;;;17.67;5.65;;;8.10;87.10;;;;;;4960318;28;20038;-90
2021/04/05 02:27:14;;;;;;;21.90;8.07;;;8.20;86.40;;;;;;4977501;28;20038;-91
2021/04/05 02:29:40;;;;;;;18.77;6.00;;;8.30;86.20;;;;;;4977497;28;20045;-92
2021/04/05 02:32:07;;;;;;;17.83;6.25;;;8.30;86.20;;;;;;4959348;28;20093;-91
2021/04/05 02:34:33;;;;;;;17.90;6.63;;;8.20;86.50;;;;;;4943274;28;20507;-93
2021/04/05 02:36:59;;;;;;;18.65;6.63;;;8.30;86.70;;;;;;4973936;28;20117;-91
2021/04/05 02:39:25;;;;;;;21.67;6.70;;;8.30;86.70;;;;;;4974538;28;20067;-91
2021/04/05 02:41:53;;;;;;;20.95;6.60;;;8.30;86.60;;;;;;4974688;28;20475;-92
2021/04/05 02:44:19;;;;;;;14.18;5.45;;;8.30;86.60;;;;;;4975301;28;20063;-91
2021/04/05 02:46:47;;;;;;;14.32;5.07;;;8.40;86.00;;;;;;4956728;28;20035;-88
2021/04/05 02:49:15;;;;;;;21.17;7.35;;;8.40;86.20;;;;;;4974879;28;20093;-91
2021/04/05 02:51:43;;;;;;;17.98;6.80;;;8.30;86.60;;;;;;4972883;28;20724;-92
2021/04/05 02:54:11;;;;;;;16.13;5.60;;;8.30;86.60;;;;;;4974404;28;20038;-91
2021/04/05 02:56:38;;;;;;;19.75;5.95;;;8.40;86.00;;;;;;4957769;28;20035;-91
2021/04/05 02:59:05;;;;;;;16.60;6.15;;;8.40;86.30;;;;;;4957215;28;20268;-93
2021/04/05 03:01:32;;;;;;;16.42;5.57;;;8.40;86.00;;;;;;4985767;28;20053;-92
2021/04/05 03:03:59;;;;;;;16.50;6.13;;;8.40;86.40;;;;;;4993817;28;20122;-92
2021/04/05 03:06:28;;;;;;;9.98;3.90;;;8.40;86.70;;;;;;5013878;28;20041;-93
2021/04/05 03:08:56;;;;;;;13.00;4.60;;;8.40;88.10;;;;;;5010559;28;20478;-92
2021/04/05 03:11:24;;;;;;;7.22;3.17;;;8.20;89.70;;;;;;5005296;28;20081;-92
2021/04/05 03:13:51;;;;;;;8.75;2.00;;;8.10;86.30;;;;;;4995942;28;20041;-93
2021/04/05 03:16:21;;;;;;;10.65;3.05;;;7.70;86.70;;;;;;4996589;28;20034;-91
2021/04/05 03:18:48;;;;;;;7.90;2.20;;;7.30;87.50;;;;;;5013235;28;20462;-91
2021/04/05 03:21:16;;;;;;;4.65;1.58;;;7.20;86.20;;;;;;4986631;28;20053;-91
2021/04/05 03:23:42;;;;;;;13.43;2.30;;;7.20;85.60;;;;;;4990876;28;20093;-92
2021/04/05 03:26:09;;;;;;;6.25;1.73;;;7.00;87.30;;;;;;4992013;28;20038;-91
2021/04/05 03:28:35;;;;;;;4.20;1.50;;;6.90;88.30;;;;;;5013370;28;20038;-91
2021/04/05 03:31:11;;;;;;;3.90;1.25;;;7.00;87.70;;;;;;5012746;28;20401;-90
2021/04/05 03:34:15;;;;;;;2.92;1.08;;;6.80;88.70;;;;;;5013290;28;20034;-92
2021/04/05 03:37:00;;;;;;;2.20;1.10;;;6.70;87.90;;;;;;4994221;28;20474;-91
2021/04/05 03:39:26;;;;;;;4.90;1.20;;;6.60;87.30;;;;;;5005031;28;20482;-91
2021/04/05 03:42:09;;;;;;;4.70;1.15;;;6.50;88.40;;;;;;4970071;28;20046;-91
2021/04/05 03:44:59;;;;;;;4.03;1.25;;;6.30;89.50;;;;;;4996001;28;20557;-91
2021/04/05 03:47:56;;;;;;;8.10;1.58;;;6.20;89.50;;;;;;5012573;28;20033;-92
2021/04/05 03:50:44;;;;;;;7.57;1.60;;;6.10;90.00;;;;;;5013522;28;20149;-91
2021/04/05 03:53:32;;;;;;;5.88;1.80;;;6.00;90.30;;;;;;5001944;28;20034;-91
2021/04/05 03:56:02;;;;;;;2.72;1.00;;;6.00;90.70;;;;;;4991640;28;20061;-92
2021/04/05 03:58:31;;;;;;;6.15;1.50;;;5.80;91.60;;;;;;4972446;28;20045;-93
2021/04/05 04:01:06;;;;;;;1.27;0.77;;;5.70;92.40;;;;;;5010745;28;20062;-93
2021/04/05 04:04:02;;;;;;;3.20;1.05;;;5.20;91.20;;;;;;5010908;28;20066;-93
2021/04/05 04:09:12;;;;;;;2.92;0.85;;;4.40;93.40;;;;;;5003359;28;20077;-93
2021/04/05 04:11:39;;;;;;;2.78;0.90;;;4.30;93.50;;;;;;5001223;28;20064;-89
2021/04/05 04:14:08;;;;;;;1.77;1.20;;;4.20;93.90;;;;;;4984694;28;20046;-91
2021/04/05 04:16:34;;;;;;;3.35;1.10;;;4.10;94.20;;;;;;4987560;28;20066;-90
2021/04/05 04:19:03;;;;;;;5.05;1.23;;;4.20;94.20;;;;;;5000434;28;20034;-88
2021/04/05 04:21:30;;;;;;;2.00;0.90;;;4.10;94.20;;;;;;5001262;28;20056;-89
2021/04/05 04:23:57;;;;;;;2.92;1.38;;;4.00;94.50;;;;;;4998695;28;20046;-92
2021/04/05 04:26:23;;;;;;;4.45;1.10;;;4.20;94.10;;;;;;4998921;28;20497;-91
2021/04/05 04:28:49;;;;;;;2.95;0.85;;;4.20;94.10;;;;;;4999781;28;20042;-90
2021/04/05 04:31:19;;;;;;;7.40;1.30;;;4.10;94.20;;;;;;4986767;28;20049;-91
2021/04/05 04:33:47;;;;;;;3.13;1.20;;;4.20;93.80;;;;;;5001620;28;20037;-91
2021/04/05 04:36:20;;;;;;;1.27;0.68;;;4.20;93.70;;;;;;4983990;28;20041;-92
2021/04/05 04:38:46;;;;;;;2.72;0.80;;;4.30;94.00;;;;;;5000446;28;20034;-93
2021/04/05 04:41:23;;;;;;;2.65;0.90;;;4.30;93.80;;;;;;4999927;28;20324;-92
2021/04/05 04:43:57;;;;;;;8.18;1.50;;;4.40;94.10;;;;;;4985912;28;20097;-94
2021/04/05 04:46:23;;;;;;;2.92;1.17;;;4.50;94.40;;;;;;5004802;28;20048;-92
2021/04/05 04:48:57;;;;;;;1.42;0.85;;;4.50;94.20;;;;;;5008395;28;20556;-91
2021/04/05 04:51:23;;;;;;;2.55;0.68;;;4.40;94.00;;;;;;5007447;28;20042;-89
2021/04/05 04:53:50;;;;;;;6.72;1.02;;;4.30;93.50;;;;;;5008997;28;20057;-90
2021/04/05 04:56:16;;;;;;;4.68;1.00;;;4.30;93.50;;;;;;5007064;28;20885;-89
2021/04/05 04:58:43;;;;;;;1.08;0.52;;;4.30;94.00;;;;;;4990599;28;20156;-90
2021/04/05 05:01:11;;;;;;;2.13;0.65;;;4.20;93.70;;;;;;4985522;28;20053;-93
2021/04/05 05:03:43;;;;;;;2.25;0.85;;;4.10;92.90;;;;;;5002360;28;20034;-91
2021/04/05 05:06:12;;;;;;;1.80;1.05;;;3.80;93.40;;;;;;4982311;28;20046;-91
2021/04/05 05:08:40;;;;;;;4.15;1.85;;;3.60;94.00;;;;;;4986647;28;20057;-92
2021/04/05 05:11:06;;;;;;;2.17;0.77;;;3.50;94.60;;;;;;5002107;28;20034;-91
2021/04/05 05:13:32;;;;;;;5.43;1.10;;;3.70;94.20;;;;;;5006694;28;20030;-90
2021/04/05 05:15:58;;;;;;;3.70;0.77;;;3.60;94.50;;;;;;5005133;28;20371;-92
2021/04/05 05:18:25;;;;;;;4.00;0.70;;;3.70;94.00;;;;;;4988064;28;20037;-92
2021/04/05 05:20:52;;;;;;;1.05;0.70;;;3.80;93.50;;;;;;5005678;28;20038;-90
2021/04/05 05:23:18;;;;;;;2.15;0.85;;;3.60;94.00;;;;;;5005624;28;20049;-92
2021/04/05 05:25:46;;;;;;;2.22;0.95;;;3.70;93.80;;;;;;4988070;28;20026;-91
2021/04/05 05:28:14;;;;;;;4.72;1.10;;;3.70;93.70;;;;;;4989501;28;20042;-89
2021/04/05 05:30:41;;;;;;;5.10;1.25;;;3.60;93.30;;;;;;4986768;28;20121;-90
2021/04/05 05:33:08;;;;;;;4.97;1.20;;;3.50;92.70;;;;;;5001890;28;20103;-90
2021/04/05 05:35:35;;;;;;;4.00;1.10;;;3.40;93.00;;;;;;5006074;28;20069;-91
2021/04/05 05:38:03;;;;;;;4.93;1.42;;;3.30;93.20;;;;;;5002723;28;20095;-90
2021/04/05 05:40:31;;;;;;;2.35;1.13;;;3.30;93.00;;;;;;5002900;28;20030;-92
2021/04/05 05:43:24;;;;;;;4.65;1.70;;;3.30;93.10;;;;;;5005846;28;20058;-88
2021/04/05 05:45:56;;;;;;;7.07;1.30;;;3.30;93.10;;;;;;5006092;28;20117;-91
2021/04/05 05:48:37;;;;;;;4.72;1.20;;;3.40;92.60;;;;;;5000937;28;20061;-90
2021/04/05 05:51:51;;;;;;;5.65;1.40;;;3.30;92.30;;;;;;5004213;28;20052;-90
2021/04/05 05:54:44;;;;;;;7.05;1.58;;;3.30;92.40;;;;;;4943445;28;20047;-89
2021/04/05 05:57:26;;;;;;;9.20;1.60;;;3.30;92.40;;;;;;5000313;28;20037;-90
2021/04/05 06:00:12;;;;;;;7.38;1.60;;;3.40;92.00;;;;;;5003967;28;20081;-92
2021/04/05 06:03:16;;;;;;;7.17;1.60;;;3.60;89.70;;;;;;4989105;28;20046;-90
2021/04/05 06:06:16;;;;;;;2.78;1.38;;;3.50;89.70;;;;;;5006115;28;20827;-92
2021/04/05 06:09:18;;;;;;;4.78;2.03;;;3.60;86.80;;;;;;5011531;28;20041;-92
2021/04/05 06:12:04;;;;;;;11.30;1.80;;;3.90;79.20;;;;;;4973277;28;20073;-91
2021/04/05 06:14:49;;;;;;;7.22;1.75;;;3.90;80.40;;;;;;5004500;28;20062;-90
2021/04/05 06:17:36;;;;;;;8.98;2.45;;;4.10;79.70;;;;;;5001380;28;20629;-90
2021/04/05 06:20:11;;;;;;;8.73;1.77;;;4.00;81.70;;;;;;5001215;28;20032;-89
2021/04/05 06:22:59;;;;;;;7.33;2.10;;;4.00;81.60;;;;;;4999836;28;20464;-93
2021/04/05 06:25:36;;;;;;;9.07;1.95;;;4.20;77.40;;;;;;4984223;28;20038;-91
2021/04/05 06:28:16;;;;;;;9.85;1.85;;;4.10;76.90;;;;;;5000928;28;20044;-88
2021/04/05 06:30:51;;;;;;;7.75;2.53;;;4.00;79.10;;;;;;4981435;28;20041;-90
2021/04/05 06:33:32;;;;;;;5.80;2.10;;;4.10;76.90;;;;;;5001770;28;20048;-92
2021/04/05 06:36:21;;;;;;;3.40;1.58;;;4.10;75.20;;;;;;4987004;28;20034;-91
2021/04/05 06:38:56;;;;;;;4.13;1.58;;;4.00;75.60;;;;;;5000717;28;20093;-90
2021/04/05 06:41:35;;;;;;;6.13;1.75;;;4.00;76.50;;;;;;4999946;28;20034;-92
2021/04/05 06:44:16;;;;;;;3.08;1.65;;;4.00;76.50;;;;;;5002921;28;20046;-89
2021/04/05 06:47:07;;;;;;;7.50;1.77;;;4.10;76.60;;;;;;4985402;28;21459;-92
2021/04/05 06:49:39;;;;;;;6.53;1.70;;;4.10;79.90;;;;;;5002774;28;20038;-91
2021/04/05 06:52:08;;;;;;;7.65;1.52;;;3.90;80.70;;;;;;4997025;28;20474;-91
2021/04/05 06:54:55;;;;;;;3.63;1.52;;;3.80;82.10;;;;;;5000536;28;20389;-91
2021/04/05 06:57:31;;;;;;;4.43;1.50;;;3.70;84.70;;;;;;4988300;28;20490;-92
2021/04/05 07:00:03;;;;;;;4.43;1.20;;;3.70;84.60;;;;;;5003652;28;20034;-90
2021/04/05 07:03:02;;;;;;;6.35;1.40;;;3.60;85.30;;;;;;5006580;28;20057;-91
2021/04/05 07:05:59;;;;;;;10.60;1.30;;;3.40;87.40;;;;;;4989106;28;20042;-92
2021/04/05 07:08:34;;;;;;;6.68;1.67;;;3.30;88.70;;;;;;4991157;28;20536;-90
2021/04/05 07:11:18;;;;;;;4.88;1.40;;;3.20;89.20;;;;;;4987257;28;20044;-91
2021/04/05 07:14:02;;;;;;;5.90;1.38;;;3.40;88.60;;;;;;4999539;28;20032;-93
2021/04/05 07:16:46;;;;;;;6.20;1.70;;;3.40;87.10;;;;;;4998402;28;20046;-93
2021/04/05 07:19:42;;;;;;;3.28;1.15;;;3.40;87.10;;;;;;5000352;28;20470;-92
2021/04/05 07:22:11;;;;;;;;;;;3.60;81.80;;;;;;4999705;28;20042;-89
2021/04/05 07:24:50;;;;;;;2.17;0.90;;;3.70;85.80;;;;;;5003698;28;19928;-88
2021/04/05 07:27:44;;;;;;;1.17;0.93;;;3.10;89.90;;;;;;4971404;28;20538;-86
2021/04/05 07:30:24;;;;;;;0.77;0.70;;;2.40;92.00;;;;;;4999387;28;20413;-89
2021/04/05 07:33:14;;;;;;;2.72;0.65;;;1.90;93.10;;;;;;5000293;28;20050;-90
2021/04/05 07:35:54;;;;;;;4.63;1.55;;;1.70;94.10;;;;;;5002380;28;20034;-88
2021/04/05 07:38:35;;;;;;;2.42;0.70;;;1.40;94.50;;;;;;4998179;28;20061;-89
2021/04/05 07:41:06;;;;;;;1.75;1.02;;;1.30;95.20;;;;;;5004697;28;20050;-90
2021/04/05 07:44:07;;;;;;;2.65;1.20;;;1.40;94.50;;;;;;5004077;28;20038;-88
2021/04/05 07:46:39;;;;;;;3.42;0.80;;;1.30;94.70;;;;;;4981585;28;20406;-88
2021/04/05 07:49:26;;;;;;;5.65;1.25;;;1.20;95.00;;;;;;5000543;28;20030;-87
2021/04/05 07:52:06;;;;;;;3.10;1.13;;;1.20;95.30;;;;;;4996911;28;20054;-87
2021/04/05 07:54:38;;;;;;;9.13;1.55;;;1.30;94.70;;;;;;4981430;28;20536;-87
2021/04/05 07:57:23;;;;;;;6.18;1.40;;;1.30;94.60;;;;;;4999497;28;20373;-87
2021/04/05 08:00:11;;;;;;;5.57;1.70;;;1.40;94.30;;;;;;5001747;28;20038;-89
2021/04/05 08:02:56;;;;;;;3.75;1.30;;;1.50;93.20;;;;;;4983476;28;20121;-87
2021/04/05 08:05:54;;;;;;;5.90;1.42;;;1.40;93.40;;;;;;4998445;28;20033;-87
2021/04/05 08:08:47;;;;;;;6.55;1.45;;;1.40;92.90;;;;;;4998492;28;20033;-87
2021/04/05 08:11:47;;;;;;;3.08;1.20;;;1.40;92.10;;;;;;4997001;28;20052;-86
2021/04/05 08:14:20;;;;;;;12.75;2.38;;;1.40;92.80;;;;;;4999802;28;20197;-87
2021/04/05 08:17:01;;;;;;;3.97;1.20;;;1.60;91.20;;;;;;4984614;28;20034;-85
2021/04/05 08:19:57;;;;;;;6.53;1.92;;;1.60;91.50;;;;;;4997746;28;20118;-87
2021/04/05 08:22:38;;;;;;;10.80;2.88;;;1.80;90.50;;;;;;4997220;28;20057;-84
2021/04/05 08:25:39;;;;;;;9.60;2.00;;;2.00;91.00;;;;;;4999698;28;20117;-84
2021/04/05 08:28:18;;;;;;;8.57;1.92;;;2.20;90.70;;;;;;4997942;28;20116;-86
2021/04/05 08:30:58;;;;;;;7.65;1.88;;;2.50;87.10;;;;;;5002545;28;20538;-87
2021/04/05 08:33:48;;;;;;;6.78;1.75;;;2.50;82.80;;;;;;4996593;28;20064;-86
2021/04/05 08:36:48;;;;;;;8.90;2.70;;;2.40;85.50;;;;;;4992765;28;20039;-85
2021/04/05 08:39:24;;;;;;;12.95;1.80;;;2.20;89.10;;;;;;4942264;28;20050;-85
2021/04/05 08:42:19;;;;;;;4.50;1.40;;;1.70;90.10;;;;;;4998052;28;20041;-84
2021/04/05 08:45:03;;;;;;;7.65;1.40;;;1.40;91.20;;;;;;4991333;28;20034;-85
2021/04/05 08:47:32;;;;;;;6.30;1.02;;;1.30;90.00;;;;;;4994375;28;20053;-86
2021/04/05 08:50:07;;;;;;;5.85;1.52;;;1.30;89.70;;;;;;4994155;28;20040;-84
2021/04/05 08:52:43;;;;;;;5.65;1.42;;;1.30;90.00;;;;;;4991649;28;20435;-87
2021/04/05 08:55:15;;;;;;;9.68;2.15;;;1.40;89.60;;;;;;4989728;28;20037;-86
2021/04/05 08:58:06;;;;;;;6.72;2.05;;;1.50;90.00;;;;;;5012308;28;20037;-87
2021/04/05 09:00:36;;;;;;;7.32;1.55;;;1.80;87.20;;;;;;4993476;28;20512;-93
2021/04/05 09:03:09;;;;;;;6.65;1.75;;;2.10;85.70;;;;;;5012025;28;20042;-87
2021/04/05 09:05:41;;;;;;;6.97;1.80;;;2.30;85.50;;;;;;4978216;28;20496;-88
2021/04/05 09:08:14;;;;;;;10.48;1.92;;;2.50;79.30;;;;;;4977767;28;20504;-87
2021/04/05 09:11:02;;;;;;;4.95;1.85;;;2.30;78.60;;;;;;5011524;28;20030;-87
2021/04/05 09:13:39;;;;;;;1.45;1.00;;;2.50;73.90;;;;;;4977316;28;20054;-87
2021/04/05 09:16:32;;;;;;;2.72;1.08;;;2.50;73.40;;;;;;5011460;28;20040;-88
2021/04/05 09:19:16;;;;;;;1.25;1.00;;;2.70;69.60;;;;;;4994085;28;20041;-87
2021/04/05 09:21:45;;;;;;;4.95;1.60;;;2.90;71.10;;;;;;4994679;28;20567;-88
2021/04/05 09:24:28;;;;;;;4.55;1.00;;;3.10;67.60;;;;;;4994832;28;20038;-88
2021/04/05 09:27:12;;;;;;;2.63;1.38;;;3.20;69.00;;;;;;4995962;28;20068;-90
2021/04/05 09:30:09;;;;;;;5.27;1.43;;;3.40;69.10;;;;;;4975470;28;20437;-91
2021/04/05 09:33:03;;;;;;;3.97;1.20;;;3.50;66.70;;;;;;4995220;28;20309;-93
2021/04/05 09:36:11;;;;;;;6.70;1.83;;;3.70;63.60;;;;;;4985702;28;20269;-90
2021/04/05 09:39:04;;;;;;;6.68;1.70;;;3.70;70.30;;;;;;4906274;29;20047;-89
2021/04/05 09:41:48;;;;;;;3.70;1.33;;;3.60;69.40;;;;;;4891272;29;20059;-88
2021/04/05 09:44:35;;;;;;;3.72;1.52;;;3.70;65.90;;;;;;4908313;29;20067;-91
2021/04/05 09:47:36;;;;;;;3.17;1.15;;;3.80;64.20;;;;;;4924863;29;20143;-89
2021/04/05 09:50:20;;;;;;;2.42;1.30;;;3.80;65.30;;;;;;4921183;29;20070;-89
2021/04/05 09:53:14;;;;;;;3.88;1.10;;;3.90;60.10;;;;;;4923846;29;20047;-89
2021/04/05 09:55:46;;;;;;;3.58;1.30;;;3.90;63.80;;;;;;4925686;29;20043;-89
2021/04/05 09:58:41;;;;;;;1.60;0.90;;;4.10;59.00;;;;;;4929223;29;20568;-89
2021/04/05 10:01:13;;;;;;;4.80;1.10;;;4.00;56.00;;;;;;4920863;29;20052;-89
2021/04/05 10:03:45;;;;;;;4.13;1.25;;;3.90;58.90;;;;;;4928087;29;20201;-92
2021/04/05 10:06:14;;;;;;;3.42;1.17;;;4.00;63.80;;;;;;4927975;29;20050;-90
2021/04/05 10:08:49;;;;;;;5.45;1.35;;;4.00;62.90;;;;;;4939670;28;20050;-90
2021/04/05 10:11:24;;;;;;;3.45;1.63;;;4.00;61.00;;;;;;4987036;28;20046;-90
2021/04/05 10:13:57;;;;;;;5.10;1.42;;;4.10;65.70;;;;;;4984778;28;20046;-90
2021/04/05 10:16:25;;;;;;;2.67;1.20;;;4.30;60.30;;;;;;4981649;28;20042;-91
2021/04/05 10:18:58;;;;;;;4.63;1.42;;;4.30;56.80;;;;;;5002509;28;20030;-91
2021/04/05 10:21:25;;;;;;;1.55;0.85;;;4.30;59.20;;;;;;4968749;28;20049;-91
2021/04/05 10:23:55;;;;;;;4.05;1.58;;;4.20;62.90;;;;;;5006697;28;20578;-90
2021/04/05 10:26:29;;;;;;;3.00;0.90;;;4.00;62.40;;;;;;4986572;28;20176;-91
2021/04/05 10:28:56;;;;;;;3.00;1.30;;;3.90;61.90;;;;;;4985276;28;20030;-90
2021/04/05 10:31:23;;;;;;;1.60;1.20;;;3.90;62.50;;;;;;5008595;28;20044;-90
2021/04/05 10:34:04;;;;;;;2.63;1.10;;;4.00;67.10;;;;;;5003868;28;20117;-89
2021/04/05 10:36:39;;;;;;;1.00;0.95;;;4.10;68.80;;;;;;5001620;28;20501;-93
2021/04/05 10:39:06;;;;;;;2.70;1.00;;;4.20;70.40;;;;;;4987407;28;20042;-92
2021/04/05 10:41:34;;;;;;;2.22;1.02;;;4.30;66.20;;;;;;5001021;28;20034;-94
2021/04/05 10:44:06;;;;;;;3.17;1.10;;;4.30;61.10;;;;;;4984652;28;20065;-90
2021/04/05 10:46:39;;;;;;;3.17;1.17;;;4.20;59.70;;;;;;5004288;28;20038;-91
2021/04/05 10:49:12;;;;;;;5.53;1.00;;;4.40;58.60;;;;;;4985899;28;20149;-92
2021/04/05 10:51:45;;;;;;;1.67;1.13;;;4.40;58.90;;;;;;4986452;28;20045;-92
2021/04/05 10:54:26;;;;;;;3.10;1.10;;;4.60;59.40;;;;;;4984028;28;20557;-92
2021/04/05 10:57:13;;;;;;;3.03;1.30;;;4.90;61.60;;;;;;4998458;28;20157;-92
2021/04/05 10:59:45;;;;;;;4.15;1.25;;;4.70;61.30;;;;;;5008234;28;20125;-93
2021/04/05 11:02:19;;;;;;;3.20;1.05;;;4.50;64.80;;;;;;5008062;28;20100;-92
2021/04/05 11:04:57;;;;;;;3.67;0.95;;;4.30;68.90;;;;;;4995437;28;20034;-93
2021/04/05 11:07:25;;;;;;;3.38;1.10;;;3.80;73.50;;;;;;5001732;28;20050;-90
2021/04/05 11:09:55;;;;;;;2.30;1.30;;;3.60;71.40;;;;;;4992774;28;20049;-91
2021/04/05 11:12:23;;;;;;;1.42;0.90;;;3.70;71.90;;;;;;4996408;28;20037;-93
2021/04/05 11:14:52;;;;;;;6.95;1.42;;;4.10;76.30;;;;;;4997726;28;20054;-93
2021/04/05 11:17:22;;;;;;;2.38;1.30;;;4.40;76.20;;;;;;4981453;28;20119;-92
2021/04/05 11:19:53;;;;;;;5.05;1.48;;;4.60;74.60;;;;;;4990869;28;20105;-94
2021/04/05 11:22:25;;;;;;;7.13;1.40;;;4.70;71.00;;;;;;5008050;28;20049;-93
2021/04/05 11:25:04;;;;;;;1.88;1.00;;;4.50;70.40;;;;;;4996916;28;20038;-92
2021/04/05 11:27:34;;;;;;;5.32;0.98;;;4.40;70.70;;;;;;5000909;28;20038;-87
2021/04/05 11:30:05;;;;;;;2.15;1.17;;;4.40;66.70;;;;;;5014177;28;20045;-87
2021/04/05 11:32:33;;;;;;;6.72;1.17;;;4.70;64.90;;;;;;5003921;28;21040;-88
2021/04/05 11:35:02;;;;;;;4.03;1.30;;;5.00;62.80;;;;;;5010277;28;20038;-92
2021/04/05 11:37:33;;;;;;;3.28;1.50;;;5.00;52.00;;;;;;4990121;28;20529;-87
2021/04/05 11:40:20;;;;;;;2.78;1.25;;;5.00;54.10;;;;;;4995029;28;20026;-87
2021/04/05 11:42:49;;;;;;;3.53;1.05;;;4.80;54.60;;;;;;4991327;28;20046;-87
2021/04/05 11:45:42;;;;;;;7.63;1.42;;;4.90;57.30;;;;;;5003132;28;20092;-87
2021/04/05 11:48:17;;;;;;;3.00;1.30;;;4.90;56.80;;;;;;5012214;28;20064;-87
2021/04/05 11:50:43;;;;;;;4.32;1.10;;;5.00;57.90;;;;;;5011409;28;20029;-89
2021/04/05 11:53:41;;;;;;;8.35;1.73;;;4.90;59.50;;;;;;5010860;28;20034;-86
2021/04/05 11:56:15;;;;;;;8.10;2.08;;;4.90;61.20;;;;;;4985878;28;20505;-87
2021/04/05 11:58:49;;;;;;;3.23;1.60;;;5.10;62.00;;;;;;4992966;28;20060;-88
2021/04/05 12:01:20;;;;;;;1.85;1.13;;;4.60;70.30;;;;;;4996811;28;20076;-88
2021/04/05 12:03:57;;;;;;;2.45;0.90;;;3.70;77.20;;;;;;4994666;28;20033;-87
2021/04/05 12:06:34;;;;;;;0.80;0.80;;;3.20;82.60;;;;;;4998355;28;20498;-91
2021/04/05 12:09:09;;;;;;;1.65;0.95;;;2.60;84.20;;;;;;4997800;28;20489;-89
2021/04/05 12:11:50;;;;;;;3.53;1.45;;;2.30;85.70;;;;;;4990103;28;20450;-88
2021/04/05 12:14:26;;;;;;;2.22;0.95;;;2.00;87.40;;;;;;4995769;28;20099;-89
2021/04/05 12:16:55;;;;;;;1.90;1.20;;;2.00;87.70;;;;;;5008641;28;20121;-87
2021/04/05 12:19:38;;;;;;;4.07;1.50;;;2.10;85.60;;;;;;4994787;28;20030;-87
2021/04/05 12:22:06;;;;;;;3.80;1.13;;;2.40;85.80;;;;;;4996564;28;20038;-88
2021/04/05 12:24:39;;;;;;;3.50;1.10;;;2.50;82.30;;;;;;5005453;28;20042;-87
2021/04/05 12:27:09;;;;;;;5.68;1.60;;;2.70;81.00;;;;;;5010084;28;20038;-86
2021/04/05 12:29:37;;;;;;;5.03;1.52;;;3.10;82.60;;;;;;5010120;28;20124;-86
2021/04/05 12:32:06;;;;;;;3.65;1.60;;;3.60;82.90;;;;;;4987057;28;20049;-86
2021/04/05 12:34:35;;;;;;;7.20;1.48;;;4.10;81.80;;;;;;5009311;28;20117;-88
2021/04/05 12:37:10;;;;;;;5.10;1.40;;;4.50;77.50;;;;;;5010748;28;20038;-91
2021/04/05 12:39:36;;;;;;;4.38;1.50;;;4.70;75.30;;;;;;4993911;28;20038;-88
2021/04/05 12:42:08;;;;;;;10.18;1.90;;;5.00;72.50;;;;;;5012991;28;20033;-87
2021/04/05 12:44:37;;;;;;;6.28;1.70;;;5.20;72.90;;;;;;4993886;28;20117;-87
2021/04/05 12:47:07;;;;;;;4.88;1.20;;;5.20;71.50;;;;;;4992533;28;20034;-87
2021/04/05 12:49:43;;;;;;;2.30;1.48;;;5.30;67.20;;;;;;5005311;28;20064;-87
2021/04/05 12:52:20;;;;;;;7.72;1.52;;;5.40;62.00;;;;;;4995441;28;20049;-87
2021/04/05 12:54:50;;;;;;;3.85;1.58;;;5.30;64.90;;;;;;4996339;28;20113;-87
2021/04/05 12:57:25;;;;;;;3.88;1.10;;;5.10;64.00;;;;;;5012893;28;20393;-87
2021/04/05 12:59:53;;;;;;;3.53;1.00;;;4.60;63.30;;;;;;4992548;28;20042;-90
2021/04/05 13:02:22;;;;;;;7.55;1.27;;;4.10;63.70;;;;;;5005355;28;20129;-89
2021/04/05 13:05:00;;;;;;;3.85;1.00;;;3.60;65.70;;;;;;4975459;28;20034;-84
2021/04/05 13:07:46;;;;;;;1.67;0.77;;;3.20;69.60;;;;;;4971132;28;20038;-87
2021/04/05 13:10:26;;;;;;;3.85;0.90;;;3.00;69.70;;;;;;4991147;28;20487;-87
2021/04/05 13:13:01;;;;;;;4.15;1.02;;;3.00;66.80;;;;;;4971728;28;20046;-85
2021/04/05 13:15:30;;;;;;;;;;;3.00;69.50;;;;;;4980208;28;20038;-91
2021/04/05 13:18:04;;;;;;;8.30;1.73;;;2.90;75.10;;;;;;4975383;28;20136;-88
2021/04/05 13:20:33;;;;;;;2.25;1.05;;;2.50;82.00;;;;;;4992569;28;20044;-89
2021/04/05 13:23:04;;;;;;;3.60;1.10;;;2.00;82.30;;;;;;4986328;28;20065;-90
2021/04/05 13:25:40;;;;;;;8.80;3.90;;;1.70;83.20;;;;;;4989798;28;20475;-89
2021/04/05 13:28:08;;;;;;;23.33;11.57;;;1.70;83.40;;;;;;4987041;28;20089;-91
2021/04/05 13:30:37;;;;;;;20.95;10.88;;;1.70;83.50;;;;;;4985250;28;20062;-89
2021/04/05 13:33:05;;;;;;;14.32;4.95;;;1.90;83.30;;;;;;4977002;28;20052;-88
2021/04/05 13:35:32;;;;;;;4.97;1.50;;;2.10;81.10;;;;;;4994908;28;20034;-89